createdAt,value
2022-11-07T00:00:20.226Z,87.18
2022-11-07T00:02:49.716Z,85.16
2022-11-07T00:05:17.205Z,87.76
2022-11-07T00:07:45.128Z,88.50
2022-11-07T00:10:15.218Z,90.94
2022-11-07T00:12:44.703Z,94.47
2022-11-07T00:15:16.159Z,93.88
2022-11-07T00:17:46.096Z,92.08
2022-11-07T00:20:15.218Z,92.04
2022-11-07T00:22:44.397Z,92.30
2022-11-07T00:25:12.779Z,92.82
2022-11-07T00:27:42.655Z,90.83
2022-11-07T00:30:13.132Z,92.59
2022-11-07T00:32:41.861Z,91.97
2022-11-07T00:35:09.780Z,91.87
2022-11-07T00:37:37.505Z,91.00
2022-11-07T00:40:06.688Z,89.59
2022-11-07T00:42:34.735Z,89.66
2022-11-07T00:45:04.557Z,89.87
2022-11-07T00:47:33.436Z,90.64
2022-11-07T00:50:02.103Z,91.10
2022-11-07T00:52:31.326Z,89.58
2022-11-07T00:54:59.275Z,92.61
2022-11-07T00:57:29.994Z,91.91
2022-11-07T01:00:02.266Z,92.76
2022-11-07T01:02:32.815Z,91.22
2022-11-07T01:05:11.133Z,86.31
2022-11-07T01:07:50.029Z,83.78
2022-11-07T01:10:19.939Z,84.65
2022-11-07T01:12:49.480Z,84.44
2022-11-07T01:15:17.674Z,88.68
2022-11-07T01:17:47.823Z,88.84
2022-11-07T01:20:18.603Z,88.00
2022-11-07T01:22:48.484Z,84.71
2022-11-07T01:25:17.915Z,83.28
2022-11-07T01:27:48.767Z,82.46
2022-11-07T01:30:17.795Z,81.63
2022-11-07T01:32:46.510Z,81.94
2022-11-07T01:35:16.612Z,84.37
2022-11-07T01:37:45.109Z,86.11
2022-11-07T01:40:15.166Z,86.24
2022-11-07T01:42:44.857Z,90.14
2022-11-07T01:45:22.151Z,91.64
2022-11-07T01:47:51.269Z,91.49
2022-11-07T01:50:24.692Z,91.99
2022-11-07T01:52:57.213Z,91.02
2022-11-07T01:55:30.230Z,90.75
2022-11-07T01:58:03.547Z,91.00
2022-11-07T02:00:34.559Z,91.45
2022-11-07T02:03:09.194Z,90.61
2022-11-07T02:05:44.446Z,85.75
2022-11-07T02:08:14.282Z,87.64
2022-11-07T02:10:43.338Z,88.80
2022-11-07T02:13:19.347Z,90.74
2022-11-07T02:15:47.765Z,90.81
2022-11-07T02:18:18.162Z,89.89
2022-11-07T02:20:47.012Z,88.15
2022-11-07T02:23:26.661Z,86.01
2022-11-07T02:25:56.700Z,89.04
2022-11-07T02:28:29.962Z,90.71
2022-11-07T02:30:59.794Z,90.12
2022-11-07T02:33:29.351Z,90.22
2022-11-07T02:36:00.055Z,89.04
2022-11-07T02:38:37.479Z,90.39
2022-11-07T02:41:10.134Z,90.49
2022-11-07T02:43:43.158Z,90.10
2022-11-07T02:46:12.311Z,92.01
2022-11-07T02:48:44.090Z,92.89
2022-11-07T02:51:14.873Z,86.74
2022-11-07T02:53:43.748Z,90.17
2022-11-07T02:56:12.703Z,91.17
2022-11-07T02:58:41.446Z,96.11
2022-11-07T03:01:12.351Z,97.84
2022-11-07T03:03:46.418Z,98.55
2022-11-07T03:06:20.265Z,99.38
2022-11-07T03:08:48.534Z,100.00
2022-11-07T03:11:21.852Z,100.00
2022-11-07T03:13:52.009Z,100.00
2022-11-07T03:16:21.880Z,100.00
2022-11-07T03:18:49.922Z,98.43
2022-11-07T03:21:19.561Z,99.10
2022-11-07T03:23:49.243Z,100.00
2022-11-07T03:26:18.175Z,100.00
2022-11-07T03:28:46.382Z,98.22
2022-11-07T03:31:17.017Z,98.53
2022-11-07T03:33:45.233Z,96.55
2022-11-07T03:36:14.111Z,96.72
2022-11-07T03:38:44.031Z,98.91
2022-11-07T03:41:17.440Z,96.47
2022-11-07T03:43:47.547Z,95.82
2022-11-07T03:46:17.743Z,93.57
2022-11-07T03:48:45.578Z,97.79
2022-11-07T03:51:16.723Z,97.39
2022-11-07T03:53:46.116Z,96.92
2022-11-07T03:56:15.940Z,95.08
2022-11-07T03:58:44.809Z,94.21
2022-11-07T04:01:13.499Z,95.28
2022-11-07T04:03:42.910Z,93.71
2022-11-07T04:06:13.757Z,94.07
2022-11-07T04:08:43.047Z,93.58
2022-11-07T04:11:32.450Z,92.92
2022-11-07T04:14:20.491Z,93.90
2022-11-07T04:17:07.448Z,94.19
2022-11-07T04:19:37.068Z,91.56
2022-11-07T04:22:04.548Z,88.70
2022-11-07T04:24:33.521Z,86.58
2022-11-07T04:27:22.006Z,83.97
2022-11-07T04:29:51.321Z,84.64
2022-11-07T04:32:21.222Z,83.54
2022-11-07T04:34:53.151Z,82.65
2022-11-07T04:37:21.032Z,81.40
2022-11-07T04:39:49.387Z,80.48
2022-11-07T04:42:16.888Z,81.89
2022-11-07T04:44:47.466Z,81.65
2022-11-07T04:47:16.494Z,81.71
2022-11-07T04:49:46.237Z,82.99
2022-11-07T04:52:14.632Z,84.35
2022-11-07T04:54:44.119Z,86.25
2022-11-07T04:57:13.774Z,87.85
2022-11-07T04:59:42.786Z,92.19
2022-11-07T05:02:13.292Z,94.43
2022-11-07T05:04:42.664Z,93.85
2022-11-07T05:07:12.243Z,94.80
2022-11-07T05:09:41.009Z,96.63
2022-11-07T05:12:10.561Z,93.04
2022-11-07T05:14:40.789Z,96.21
2022-11-07T05:17:15.227Z,94.65
2022-11-07T05:19:45.197Z,91.29
2022-11-07T05:22:33.068Z,87.93
2022-11-07T05:25:04.009Z,87.66
2022-11-07T05:27:32.262Z,88.98
2022-11-07T05:30:01.631Z,86.92
2022-11-07T05:32:30.037Z,86.25
2022-11-07T05:34:59.518Z,86.43
2022-11-07T05:37:29.129Z,84.53
2022-11-07T05:40:00.449Z,81.83
2022-11-07T05:42:30.727Z,78.24
2022-11-07T05:45:01.791Z,77.34
2022-11-07T05:47:30.944Z,78.61
2022-11-07T05:50:01.783Z,80.83
2022-11-07T05:52:32.849Z,91.58
2022-11-07T05:55:01.991Z,95.38
2022-11-07T05:57:32.349Z,97.13
2022-11-07T06:00:03.601Z,99.04
2022-11-07T06:02:42.560Z,98.20
2022-11-07T06:05:13.551Z,97.62
2022-11-07T06:07:43.908Z,98.74
2022-11-07T06:10:14.055Z,96.71
2022-11-07T06:12:42.860Z,98.54
2022-11-07T06:15:12.239Z,99.64
2022-11-07T06:17:42.548Z,100.00
2022-11-07T06:20:12.463Z,99.36
2022-11-07T06:22:42.448Z,100.00
2022-11-07T06:25:10.957Z,100.00
2022-11-07T06:27:38.975Z,95.51
2022-11-07T06:30:10.528Z,93.74
2022-11-07T06:32:41.235Z,89.79
2022-11-07T06:35:12.638Z,92.71
2022-11-07T06:37:42.687Z,95.85
2022-11-07T06:40:15.344Z,96.47
2022-11-07T06:42:43.047Z,95.86
2022-11-07T06:45:13.222Z,96.99
2022-11-07T06:47:42.836Z,95.09
2022-11-07T06:50:11.903Z,91.74
2022-11-07T06:52:40.844Z,91.94
2022-11-07T06:55:10.949Z,93.12
2022-11-07T06:57:38.812Z,92.40
2022-11-07T07:00:11.082Z,92.30
2022-11-07T07:05:31.011Z,83.30
2022-11-07T07:08:04.453Z,81.84
2022-11-07T07:10:40.826Z,88.07
2022-11-07T07:13:08.201Z,88.02
2022-11-07T07:15:50.553Z,83.19
2022-11-07T07:18:21.416Z,81.52
2022-11-07T07:20:51.942Z,81.09
2022-11-07T07:23:22.309Z,79.48
2022-11-07T07:25:52.918Z,80.48
2022-11-07T07:28:22.341Z,86.92
2022-11-07T07:30:52.275Z,87.33
2022-11-07T07:33:21.476Z,85.20
2022-11-07T07:35:50.607Z,81.91
2022-11-07T07:38:20.800Z,78.42
2022-11-07T07:40:49.648Z,77.13
2022-11-07T07:43:18.782Z,78.37
2022-11-07T07:45:48.056Z,81.74
2022-11-07T07:48:18.274Z,80.42
2022-11-07T07:50:52.035Z,85.15
2022-11-07T07:53:22.353Z,79.11
2022-11-07T07:55:58.553Z,78.11
2022-11-07T07:58:28.861Z,84.00
2022-11-07T08:00:58.971Z,81.70
2022-11-07T08:03:32.068Z,86.61
2022-11-07T08:06:05.553Z,87.51
2022-11-07T08:08:38.146Z,86.64
2022-11-07T08:11:09.148Z,83.98
2022-11-07T08:13:40.698Z,84.55
2022-11-07T08:16:10.669Z,82.16
2022-11-07T08:18:41.849Z,80.48
2022-11-07T08:21:12.583Z,80.32
2022-11-07T08:23:42.330Z,79.98
2022-11-07T08:26:10.619Z,79.70
2022-11-07T08:28:39.723Z,85.82
2022-11-07T08:31:15.661Z,87.51
2022-11-07T08:33:45.765Z,85.95
2022-11-07T08:36:15.655Z,86.40
2022-11-07T08:38:44.552Z,81.31
2022-11-07T08:41:15.402Z,80.29
2022-11-07T08:43:49.565Z,89.80
2022-11-07T08:46:19.143Z,90.45
2022-11-07T08:48:48.902Z,83.71
2022-11-07T08:51:18.503Z,79.27
2022-11-07T08:53:46.613Z,83.17
2022-11-07T08:56:16.419Z,79.62
2022-11-07T08:58:46.558Z,79.28
2022-11-07T09:01:16.161Z,81.29
2022-11-07T09:03:53.245Z,85.70
2022-11-07T09:06:25.959Z,86.63
2022-11-07T09:08:56.895Z,79.40
2022-11-07T09:11:28.537Z,78.39
2022-11-07T09:13:59.453Z,77.21
2022-11-07T09:16:29.002Z,76.04
2022-11-07T09:18:57.500Z,80.96
2022-11-07T09:21:29.656Z,80.08
2022-11-07T09:23:58.501Z,76.89
2022-11-07T09:26:28.483Z,77.72
2022-11-07T09:29:09.274Z,78.09
2022-11-07T09:31:40.578Z,76.75
2022-11-07T09:34:10.871Z,77.23
2022-11-07T09:36:40.665Z,78.41
2022-11-07T09:39:09.591Z,81.38
2022-11-07T09:42:06.151Z,81.01
2022-11-07T09:45:08.974Z,79.65
2022-11-07T09:47:41.888Z,88.09
2022-11-07T09:50:17.243Z,81.61
2022-11-07T09:53:02.896Z,82.37
2022-11-07T09:55:42.286Z,82.07
2022-11-07T09:58:35.948Z,86.14
2022-11-07T10:01:12.269Z,83.73
2022-11-07T10:04:10.209Z,79.61
2022-11-07T10:06:39.328Z,79.93
2022-11-07T10:09:19.154Z,86.90
2022-11-07T10:11:46.970Z,83.28
2022-11-07T10:14:56.833Z,84.99
2022-11-07T10:17:57.934Z,81.63
2022-11-07T10:20:43.458Z,87.98
2022-11-07T10:23:15.802Z,84.58
2022-11-07T10:26:01.138Z,82.55
2022-11-07T10:28:32.376Z,81.62
2022-11-07T10:31:07.816Z,81.49
2022-11-07T10:33:54.602Z,82.90
2022-11-07T10:36:30.554Z,84.49
2022-11-07T10:39:03.488Z,86.93
2022-11-07T10:41:34.535Z,85.97
2022-11-07T10:44:10.619Z,89.08
2022-11-07T10:46:43.495Z,90.21
2022-11-07T10:49:26.560Z,91.73
2022-11-07T10:52:10.876Z,90.65
2022-11-07T10:54:41.439Z,92.48
2022-11-07T10:57:18.873Z,85.05
2022-11-07T10:59:56.822Z,89.91
2022-11-07T11:02:25.820Z,87.80
2022-11-07T11:04:56.581Z,88.71
2022-11-07T11:07:28.698Z,84.29
2022-11-07T11:10:00.174Z,88.59
2022-11-07T11:12:35.054Z,90.61
2022-11-07T11:15:31.387Z,83.80
2022-11-07T11:18:20.006Z,85.08
2022-11-07T11:21:07.511Z,92.07
2022-11-07T11:23:41.793Z,88.92
2022-11-07T11:27:07.367Z,86.16
2022-11-07T11:29:43.315Z,89.61
2022-11-07T11:32:22.616Z,91.75
2022-11-07T11:35:00.383Z,91.17
2022-11-07T11:37:29.275Z,93.33
2022-11-07T11:39:57.879Z,92.34
2022-11-07T11:42:40.488Z,91.08
2022-11-07T11:45:21.697Z,86.99
2022-11-07T11:48:03.817Z,84.54
2022-11-07T11:50:47.445Z,83.79
2022-11-07T11:53:22.342Z,85.22
2022-11-07T11:56:01.540Z,81.87
2022-11-07T11:59:12.544Z,84.72
2022-11-07T12:02:16.511Z,79.12
2022-11-07T12:05:16.918Z,76.91
2022-11-07T12:08:25.586Z,73.51
2022-11-07T12:11:22.150Z,75.06
2022-11-07T12:14:29.400Z,77.18
2022-11-07T12:17:12.118Z,81.64
2022-11-07T12:20:01.163Z,80.40
2022-11-07T12:22:48.466Z,76.01
2022-11-07T12:25:50.874Z,76.94
2022-11-07T12:28:39.170Z,77.28
2022-11-07T12:31:48.795Z,75.23
2022-11-07T12:35:13.761Z,79.01
2022-11-07T12:37:52.693Z,74.89
2022-11-07T12:40:36.761Z,81.25
2022-11-07T12:43:32.091Z,81.49
2022-11-07T12:46:02.314Z,79.11
2022-11-07T12:48:36.573Z,74.76
2022-11-07T12:51:26.029Z,74.58
2022-11-07T12:54:16.181Z,72.60
2022-11-07T12:57:21.223Z,78.73
2022-11-07T13:00:01.245Z,78.90
2022-11-07T13:02:52.523Z,75.75
2022-11-07T13:05:53.533Z,75.27
2022-11-07T13:08:40.869Z,78.07
2022-11-07T13:11:41.062Z,78.56
2022-11-07T13:14:23.968Z,71.95
2022-11-07T13:17:04.436Z,75.56
2022-11-07T13:19:37.300Z,77.91
2022-11-07T13:22:15.260Z,74.13
2022-11-07T13:25:06.093Z,72.22
2022-11-07T13:27:39.510Z,72.61
2022-11-07T13:30:12.033Z,69.84
2022-11-07T13:32:43.328Z,67.91
2022-11-07T13:35:30.370Z,65.24
2022-11-07T13:38:08.607Z,65.09
2022-11-07T13:40:44.827Z,65.48
2022-11-07T13:43:19.712Z,70.04
2022-11-07T13:45:55.515Z,69.59
2022-11-07T13:48:50.652Z,65.17
2022-11-07T13:51:35.712Z,66.18
2022-11-07T13:54:12.265Z,69.27
2022-11-07T13:57:03.708Z,67.50
2022-11-07T13:59:47.269Z,66.74
2022-11-07T14:02:32.704Z,68.33
2022-11-07T14:05:16.273Z,68.30
2022-11-07T14:07:55.198Z,66.06
2022-11-07T14:10:41.561Z,62.95
2022-11-07T14:13:13.135Z,65.08
2022-11-07T14:15:50.478Z,64.81
2022-11-07T14:18:23.741Z,62.80
2022-11-07T14:20:56.999Z,63.16
2022-11-07T14:23:30.334Z,65.95
2022-11-07T14:26:05.814Z,66.66
2022-11-07T14:28:37.668Z,68.22
2022-11-07T14:31:12.828Z,67.69
2022-11-07T14:33:51.460Z,67.35
2022-11-07T14:36:21.177Z,67.60
2022-11-07T14:39:04.473Z,68.39
2022-11-07T14:41:38.241Z,68.93
2022-11-07T14:44:07.027Z,67.54
2022-11-07T14:46:38.153Z,68.55
2022-11-07T14:49:07.236Z,67.87
2022-11-07T14:51:38.741Z,66.10
2022-11-07T14:54:18.868Z,68.01
2022-11-07T14:57:00.305Z,67.41
2022-11-07T14:59:34.286Z,69.09
2022-11-07T15:02:23.237Z,70.05
2022-11-07T15:04:55.552Z,70.84
2022-11-07T15:07:38.207Z,71.56
2022-11-07T15:10:24.756Z,73.24
2022-11-07T15:12:57.087Z,72.13
2022-11-07T15:15:37.353Z,73.00
2022-11-07T15:18:07.699Z,73.22
2022-11-07T15:20:46.418Z,72.13
2022-11-07T15:23:20.478Z,71.68
2022-11-07T15:26:05.302Z,72.18
2022-11-07T15:28:49.562Z,71.17
2022-11-07T15:31:33.896Z,70.45
2022-11-07T15:34:04.586Z,70.84
2022-11-07T15:36:36.215Z,71.57
2022-11-07T15:39:14.402Z,71.35
2022-11-07T15:41:45.310Z,71.66
2022-11-07T15:44:17.498Z,73.37
2022-11-07T15:46:47.903Z,74.22
2022-11-07T15:49:28.755Z,74.43
2022-11-07T15:51:59.463Z,75.22
2022-11-07T15:54:29.107Z,74.49
2022-11-07T15:57:01.748Z,75.19
2022-11-07T15:59:34.666Z,74.87
2022-11-07T16:02:07.950Z,75.10
2022-11-07T16:04:39.714Z,75.74
2022-11-07T16:07:19.373Z,77.72
2022-11-07T16:09:48.989Z,78.33
2022-11-07T16:12:19.061Z,76.87
2022-11-07T16:14:47.726Z,75.17
2022-11-07T16:17:18.053Z,74.52
2022-11-07T16:19:46.276Z,75.78
2022-11-07T16:22:16.150Z,75.08
2022-11-07T16:24:46.917Z,73.55
2022-11-07T16:27:17.893Z,73.04
2022-11-07T16:29:51.349Z,72.53
2022-11-07T16:32:21.120Z,72.37
2022-11-07T16:34:48.951Z,72.28
2022-11-07T16:37:19.662Z,73.16
2022-11-07T16:39:49.089Z,75.51
2022-11-07T16:42:19.141Z,77.48
2022-11-07T16:44:49.906Z,78.55
2022-11-07T16:47:20.152Z,78.53
2022-11-07T16:49:53.529Z,78.88
2022-11-07T16:52:28.391Z,80.03
2022-11-07T16:55:00.423Z,79.94
2022-11-07T16:57:29.015Z,80.93
2022-11-07T16:59:59.182Z,80.68
2022-11-07T17:02:34.448Z,80.97
2022-11-07T17:05:07.399Z,81.59
2022-11-07T17:07:35.307Z,82.21
2022-11-07T17:10:07.552Z,83.41
2022-11-07T17:12:37.430Z,84.75
2022-11-07T17:15:11.627Z,84.22
2022-11-07T17:17:41.369Z,86.05
2022-11-07T17:20:49.001Z,85.71
2022-11-07T17:23:12.796Z,85.88
2022-11-07T17:25:55.120Z,84.23
2022-11-07T17:28:24.582Z,85.48
2022-11-07T17:30:53.740Z,84.72
2022-11-07T17:33:25.027Z,86.21
2022-11-07T17:35:56.960Z,87.75
2022-11-07T17:38:27.694Z,87.08
2022-11-07T17:41:17.781Z,85.34
2022-11-07T17:43:49.476Z,86.14
2022-11-07T17:46:30.670Z,86.77
2022-11-07T17:49:07.431Z,90.84
2022-11-07T17:51:36.650Z,90.84
2022-11-07T17:54:08.559Z,90.21
2022-11-07T17:56:38.611Z,91.41
2022-11-07T17:59:13.567Z,92.12
2022-11-07T18:01:44.395Z,92.55
2022-11-07T18:04:14.262Z,92.30
2022-11-07T18:06:44.753Z,91.37
2022-11-07T18:09:19.351Z,90.60
2022-11-07T18:11:51.467Z,91.15
2022-11-07T18:14:22.655Z,91.38
2022-11-07T18:16:52.983Z,92.57
2022-11-07T18:19:23.466Z,92.89
2022-11-07T18:21:54.219Z,91.62
2022-11-07T18:24:25.719Z,92.57
2022-11-07T18:26:55.824Z,92.58
2022-11-07T18:29:27.475Z,92.25
2022-11-07T18:31:57.718Z,93.12
2022-11-07T18:34:30.316Z,93.22
2022-11-07T18:37:00.527Z,92.58
2022-11-07T18:39:31.003Z,91.01
2022-11-07T18:42:00.925Z,91.20
2022-11-07T18:44:33.988Z,91.57
2022-11-07T18:47:06.968Z,92.61
2022-11-07T18:49:37.707Z,93.40
2022-11-07T18:52:06.484Z,92.91
2022-11-07T18:54:36.582Z,92.33
2022-11-07T18:57:06.238Z,92.24
2022-11-07T18:59:36.354Z,92.63
2022-11-07T19:02:05.931Z,91.83
2022-11-07T19:04:34.826Z,90.91
2022-11-07T19:07:04.011Z,90.99
2022-11-07T19:09:34.646Z,91.42
2022-11-07T19:12:06.674Z,92.07
2022-11-07T19:14:37.254Z,92.09
2022-11-07T19:17:06.355Z,85.08
2022-11-07T19:19:37.089Z,79.28
2022-11-07T19:22:07.147Z,78.94
2022-11-07T19:24:40.471Z,84.61
2022-11-07T19:27:09.345Z,88.95
2022-11-07T19:29:39.483Z,89.56
2022-11-07T19:32:09.408Z,91.50
2022-11-07T19:34:39.834Z,90.22
2022-11-07T19:37:07.788Z,92.02
2022-11-07T19:43:54.749Z,93.12
2022-11-07T19:46:25.255Z,93.37
2022-11-07T19:48:58.430Z,93.91
2022-11-07T19:51:26.933Z,91.90
2022-11-07T19:53:58.609Z,92.07
2022-11-07T19:56:30.125Z,92.24
2022-11-07T19:58:59.497Z,92.06
2022-11-07T20:01:30.344Z,93.33
2022-11-07T20:04:01.225Z,94.74
2022-11-07T20:06:35.980Z,95.14
2022-11-07T20:09:07.716Z,95.37
2022-11-07T20:11:36.700Z,96.10
2022-11-07T20:14:05.710Z,95.75
2022-11-07T20:16:34.358Z,94.14
2022-11-07T20:19:03.047Z,94.09
2022-11-07T20:21:31.608Z,93.65
2022-11-07T20:24:00.088Z,94.53
2022-11-07T20:26:29.525Z,95.07
2022-11-07T20:28:58.412Z,94.99
2022-11-07T20:31:42.560Z,95.40
2022-11-07T20:34:14.123Z,94.17
2022-11-07T20:36:44.432Z,93.76
2022-11-07T20:39:16.676Z,94.38
2022-11-07T20:41:44.735Z,93.99
2022-11-07T20:44:14.989Z,93.31
2022-11-07T20:46:45.395Z,93.13
2022-11-07T20:49:16.023Z,93.07
2022-11-07T20:51:44.470Z,94.42
2022-11-07T20:54:14.635Z,93.89
2022-11-07T20:56:43.984Z,93.99
2022-11-07T20:59:12.419Z,94.57
2022-11-07T21:01:40.300Z,93.71
2022-11-07T21:04:14.869Z,94.01
2022-11-07T21:06:43.133Z,93.75
2022-11-07T21:09:11.059Z,94.71
2022-11-07T21:11:39.363Z,93.89
2022-11-07T21:14:07.266Z,94.88
2022-11-07T21:16:35.301Z,93.83
2022-11-07T21:19:05.559Z,95.31
2022-11-07T21:21:34.039Z,94.37
2022-11-07T21:24:03.144Z,93.22
2022-11-07T21:26:36.990Z,94.84
2022-11-07T21:29:06.745Z,97.28
2022-11-07T21:31:37.514Z,97.87
2022-11-07T21:34:08.064Z,98.60
2022-11-07T21:36:35.583Z,98.57
2022-11-07T21:39:03.755Z,98.94
2022-11-07T21:41:31.907Z,98.34
2022-11-07T21:43:59.683Z,97.87
2022-11-07T21:46:29.444Z,96.58
2022-11-07T21:48:57.685Z,96.22
2022-11-07T21:51:30.097Z,95.67
2022-11-07T21:53:58.874Z,94.59
2022-11-07T21:56:28.729Z,93.28
2022-11-07T21:58:58.900Z,93.71
2022-11-07T22:01:27.773Z,93.48
2022-11-07T22:04:12.457Z,93.91
2022-11-07T22:06:43.578Z,92.36
2022-11-07T22:09:15.365Z,92.84
2022-11-07T22:11:43.275Z,93.69
2022-11-07T22:14:21.525Z,94.05
2022-11-07T22:16:50.542Z,94.28
2022-11-07T22:19:18.509Z,94.85
2022-11-07T22:21:46.196Z,95.09
2022-11-07T22:24:13.525Z,94.32
2022-11-07T22:26:41.238Z,94.55
2022-11-07T22:29:08.847Z,93.76
2022-11-07T22:31:36.408Z,94.17
2022-11-07T22:34:04.046Z,94.24
2022-11-07T22:36:31.864Z,94.48
2022-11-07T22:38:59.672Z,94.41
2022-11-07T22:41:27.962Z,94.44
2022-11-07T22:43:56.119Z,94.17
2022-11-07T22:46:26.471Z,95.33
2022-11-07T22:48:54.686Z,96.51
2022-11-07T22:51:28.345Z,95.44
2022-11-07T22:54:02.068Z,95.38
2022-11-07T22:56:30.412Z,95.25
2022-11-07T22:58:58.259Z,95.68
2022-11-07T23:01:28.183Z,98.85
2022-11-07T23:03:57.008Z,97.02
2022-11-07T23:06:26.305Z,98.92
2022-11-07T23:08:54.188Z,99.19
2022-11-07T23:14:13.504Z,99.59
2022-11-07T23:16:44.956Z,99.41
2022-11-07T23:19:14.418Z,98.83
2022-11-07T23:21:42.675Z,99.81
2022-11-07T23:24:10.511Z,99.02
2022-11-07T23:26:38.433Z,97.32
2022-11-07T23:29:11.442Z,96.96
2022-11-07T23:31:40.422Z,96.54
2022-11-07T23:34:08.773Z,97.22
2022-11-07T23:36:37.219Z,97.25
2022-11-07T23:39:07.578Z,96.96
2022-11-07T23:41:36.268Z,97.50
2022-11-07T23:44:04.931Z,97.85
2022-11-07T23:46:52.647Z,97.52
2022-11-07T23:49:39.413Z,97.82
2022-11-07T23:52:08.354Z,97.44
2022-11-07T23:54:55.099Z,97.36
2022-11-07T23:57:24.335Z,97.26
